sensor_id;sensor_type;location;lat;lon;timestamp;P1;durP1;ratioP1;P2;durP2;ratioP2
65936;SDS011;52707;52.086;5.418;2023-07-20T00:00:37;7.85;;;4.50;;
65936;SDS011;52707;52.086;5.418;2023-07-20T00:03:13;8.88;;;4.60;;
65936;SDS011;52707;52.086;5.418;2023-07-20T00:05:43;7.00;;;4.57;;
65936;SDS011;52707;52.086;5.418;2023-07-20T00:08:10;7.85;;;4.80;;
65936;SDS011;52707;52.086;5.418;2023-07-20T00:10:36;7.00;;;3.97;;
65936;SDS011;52707;52.086;5.418;2023-07-20T00:13:03;10.63;;;4.72;;
65936;SDS011;52707;52.086;5.418;2023-07-20T00:15:29;10.40;;;5.07;;
65936;SDS011;52707;52.086;5.418;2023-07-20T00:17:55;10.63;;;4.68;;
65936;SDS011;52707;52.086;5.418;2023-07-20T00:20:23;7.43;;;4.65;;
65936;SDS011;52707;52.086;5.418;2023-07-20T00:22:50;8.75;;;4.15;;
65936;SDS011;52707;52.086;5.418;2023-07-20T00:25:17;7.22;;;4.40;;
65936;SDS011;52707;52.086;5.418;2023-07-20T00:27:44;7.47;;;4.22;;
65936;SDS011;52707;52.086;5.418;2023-07-20T00:30:10;7.53;;;3.83;;
65936;SDS011;52707;52.086;5.418;2023-07-20T00:32:37;5.10;;;3.65;;
65936;SDS011;52707;52.086;5.418;2023-07-20T00:35:03;7.95;;;3.72;;
65936;SDS011;52707;52.086;5.418;2023-07-20T00:37:30;4.95;;;3.00;;
65936;SDS011;52707;52.086;5.418;2023-07-20T00:39:56;4.22;;;3.10;;
65936;SDS011;52707;52.086;5.418;2023-07-20T00:42:23;5.47;;;2.53;;
65936;SDS011;52707;52.086;5.418;2023-07-20T00:44:50;2.50;;;2.20;;
65936;SDS011;52707;52.086;5.418;2023-07-20T00:47:16;4.93;;;2.50;;
65936;SDS011;52707;52.086;5.418;2023-07-20T00:49:42;4.22;;;2.40;;
65936;SDS011;52707;52.086;5.418;2023-07-20T00:52:10;2.40;;;2.05;;
65936;SDS011;52707;52.086;5.418;2023-07-20T00:54:37;2.45;;;2.10;;
65936;SDS011;52707;52.086;5.418;2023-07-20T00:57:03;3.08;;;1.92;;
65936;SDS011;52707;52.086;5.418;2023-07-20T00:59:30;3.42;;;1.70;;
65936;SDS011;52707;52.086;5.418;2023-07-20T01:01:57;5.38;;;1.67;;
65936;SDS011;52707;52.086;5.418;2023-07-20T01:04:23;3.67;;;1.77;;
65936;SDS011;52707;52.086;5.418;2023-07-20T01:14:21;2.13;;;1.45;;
65936;SDS011;52707;52.086;5.418;2023-07-20T01:16:48;2.05;;;1.50;;
65936;SDS011;52707;52.086;5.418;2023-07-20T01:19:16;1.40;;;1.13;;
65936;SDS011;52707;52.086;5.418;2023-07-20T01:21:48;2.33;;;1.70;;
65936;SDS011;52707;52.086;5.418;2023-07-20T01:32:11;2.80;;;1.55;;
65936;SDS011;52707;52.086;5.418;2023-07-20T01:34:37;4.05;;;1.60;;
65936;SDS011;52707;52.086;5.418;2023-07-20T01:37:05;1.30;;;1.20;;
65936;SDS011;52707;52.086;5.418;2023-07-20T01:39:34;2.75;;;1.45;;
65936;SDS011;52707;52.086;5.418;2023-07-20T01:42:01;4.22;;;1.33;;
65936;SDS011;52707;52.086;5.418;2023-07-20T01:44:27;1.35;;;1.30;;
65936;SDS011;52707;52.086;5.418;2023-07-20T01:46:55;1.60;;;1.50;;
65936;SDS011;52707;52.086;5.418;2023-07-20T01:49:21;1.85;;;1.60;;
65936;SDS011;52707;52.086;5.418;2023-07-20T01:51:48;1.83;;;1.35;;
65936;SDS011;52707;52.086;5.418;2023-07-20T01:54:14;2.95;;;1.88;;
65936;SDS011;52707;52.086;5.418;2023-07-20T01:56:40;1.50;;;1.40;;
65936;SDS011;52707;52.086;5.418;2023-07-20T01:59:07;2.13;;;1.60;;
65936;SDS011;52707;52.086;5.418;2023-07-20T02:01:33;4.45;;;2.28;;
65936;SDS011;52707;52.086;5.418;2023-07-20T02:04:00;1.73;;;1.60;;
65936;SDS011;52707;52.086;5.418;2023-07-20T02:06:26;1.58;;;1.48;;
65936;SDS011;52707;52.086;5.418;2023-07-20T02:08:52;1.90;;;1.73;;
65936;SDS011;52707;52.086;5.418;2023-07-20T02:11:19;1.70;;;1.60;;
65936;SDS011;52707;52.086;5.418;2023-07-20T02:13:46;2.75;;;1.85;;
65936;SDS011;52707;52.086;5.418;2023-07-20T02:16:12;2.55;;;1.80;;
65936;SDS011;52707;52.086;5.418;2023-07-20T02:18:39;2.90;;;1.85;;
65936;SDS011;52707;52.086;5.418;2023-07-20T02:21:05;7.22;;;1.83;;
65936;SDS011;52707;52.086;5.418;2023-07-20T02:23:31;5.20;;;1.70;;
65936;SDS011;52707;52.086;5.418;2023-07-20T02:25:58;2.60;;;1.55;;
65936;SDS011;52707;52.086;5.418;2023-07-20T02:28:25;2.35;;;1.77;;
65936;SDS011;52707;52.086;5.418;2023-07-20T02:30:51;2.70;;;1.77;;
65936;SDS011;52707;52.086;5.418;2023-07-20T02:33:21;1.77;;;1.43;;
65936;SDS011;52707;52.086;5.418;2023-07-20T02:35:48;2.17;;;1.50;;
65936;SDS011;52707;52.086;5.418;2023-07-20T02:38:14;1.98;;;1.60;;
65936;SDS011;52707;52.086;5.418;2023-07-20T02:40:41;1.50;;;1.40;;
65936;SDS011;52707;52.086;5.418;2023-07-20T02:43:07;1.50;;;1.40;;
65936;SDS011;52707;52.086;5.418;2023-07-20T02:45:35;2.30;;;1.50;;
65936;SDS011;52707;52.086;5.418;2023-07-20T02:48:01;2.75;;;1.60;;
65936;SDS011;52707;52.086;5.418;2023-07-20T02:50:28;1.55;;;1.45;;
65936;SDS011;52707;52.086;5.418;2023-07-20T02:52:55;1.90;;;1.48;;
65936;SDS011;52707;52.086;5.418;2023-07-20T02:55:21;1.60;;;1.50;;
65936;SDS011;52707;52.086;5.418;2023-07-20T02:57:47;2.80;;;1.80;;
65936;SDS011;52707;52.086;5.418;2023-07-20T03:00:14;4.60;;;1.50;;
65936;SDS011;52707;52.086;5.418;2023-07-20T03:02:42;1.83;;;1.73;;
65936;SDS011;52707;52.086;5.418;2023-07-20T03:05:08;2.42;;;1.73;;
65936;SDS011;52707;52.086;5.418;2023-07-20T03:07:35;1.67;;;1.58;;
65936;SDS011;52707;52.086;5.418;2023-07-20T03:10:01;3.08;;;1.60;;
65936;SDS011;52707;52.086;5.418;2023-07-20T03:12:29;1.55;;;1.45;;
65936;SDS011;52707;52.086;5.418;2023-07-20T03:14:55;3.08;;;1.70;;
65936;SDS011;52707;52.086;5.418;2023-07-20T03:17:23;1.95;;;1.75;;
65936;SDS011;52707;52.086;5.418;2023-07-20T03:19:49;7.15;;;1.70;;
65936;SDS011;52707;52.086;5.418;2023-07-20T03:22:15;1.73;;;1.45;;
65936;SDS011;52707;52.086;5.418;2023-07-20T03:24:42;2.10;;;1.70;;
65936;SDS011;52707;52.086;5.418;2023-07-20T03:27:08;2.45;;;1.52;;
65936;SDS011;52707;52.086;5.418;2023-07-20T03:29:35;2.42;;;1.48;;
65936;SDS011;52707;52.086;5.418;2023-07-20T03:32:01;2.28;;;1.80;;
65936;SDS011;52707;52.086;5.418;2023-07-20T03:34:27;2.40;;;1.65;;
65936;SDS011;52707;52.086;5.418;2023-07-20T03:36:54;1.70;;;1.60;;
65936;SDS011;52707;52.086;5.418;2023-07-20T03:39:21;2.00;;;1.80;;
65936;SDS011;52707;52.086;5.418;2023-07-20T03:41:48;1.63;;;1.45;;
65936;SDS011;52707;52.086;5.418;2023-07-20T03:44:14;1.73;;;1.40;;
65936;SDS011;52707;52.086;5.418;2023-07-20T03:46:41;2.05;;;1.85;;
65936;SDS011;52707;52.086;5.418;2023-07-20T03:49:07;2.30;;;1.88;;
65936;SDS011;52707;52.086;5.418;2023-07-20T03:51:35;3.67;;;2.05;;
65936;SDS011;52707;52.086;5.418;2023-07-20T03:54:01;2.20;;;2.00;;
65936;SDS011;52707;52.086;5.418;2023-07-20T03:56:28;2.22;;;1.98;;
65936;SDS011;52707;52.086;5.418;2023-07-20T03:58:55;1.67;;;1.58;;
65936;SDS011;52707;52.086;5.418;2023-07-20T04:01:21;2.20;;;2.00;;
65936;SDS011;52707;52.086;5.418;2023-07-20T04:03:47;5.63;;;2.15;;
65936;SDS011;52707;52.086;5.418;2023-07-20T04:06:15;3.25;;;2.03;;
65936;SDS011;52707;52.086;5.418;2023-07-20T04:08:44;2.75;;;2.25;;
65936;SDS011;52707;52.086;5.418;2023-07-20T04:11:10;2.28;;;2.13;;
65936;SDS011;52707;52.086;5.418;2023-07-20T04:13:36;2.10;;;2.00;;
65936;SDS011;52707;52.086;5.418;2023-07-20T04:16:03;2.50;;;2.13;;
65936;SDS011;52707;52.086;5.418;2023-07-20T04:18:29;4.82;;;2.50;;
65936;SDS011;52707;52.086;5.418;2023-07-20T04:20:56;3.38;;;2.05;;
65936;SDS011;52707;52.086;5.418;2023-07-20T04:23:24;2.92;;;2.28;;
65936;SDS011;52707;52.086;5.418;2023-07-20T04:25:50;2.88;;;2.55;;
65936;SDS011;52707;52.086;5.418;2023-07-20T04:28:17;2.88;;;2.67;;
65936;SDS011;52707;52.086;5.418;2023-07-20T04:30:43;3.97;;;2.65;;
65936;SDS011;52707;52.086;5.418;2023-07-20T04:33:10;5.10;;;2.50;;
65936;SDS011;52707;52.086;5.418;2023-07-20T04:38:14;2.55;;;2.03;;
65936;SDS011;52707;52.086;5.418;2023-07-20T04:40:45;2.50;;;2.30;;
65936;SDS011;52707;52.086;5.418;2023-07-20T04:43:12;3.60;;;2.63;;
65936;SDS011;52707;52.086;5.418;2023-07-20T04:45:40;4.80;;;2.50;;
65936;SDS011;52707;52.086;5.418;2023-07-20T04:48:08;3.50;;;2.60;;
65936;SDS011;52707;52.086;5.418;2023-07-20T04:50:36;3.50;;;2.85;;
65936;SDS011;52707;52.086;5.418;2023-07-20T04:53:02;6.28;;;3.20;;
65936;SDS011;52707;52.086;5.418;2023-07-20T04:55:29;5.72;;;3.22;;
65936;SDS011;52707;52.086;5.418;2023-07-20T04:57:55;4.03;;;3.10;;
65936;SDS011;52707;52.086;5.418;2023-07-20T05:00:22;4.07;;;3.33;;
65936;SDS011;52707;52.086;5.418;2023-07-20T05:02:48;13.48;;;3.80;;
65936;SDS011;52707;52.086;5.418;2023-07-20T05:05:15;6.68;;;3.60;;
65936;SDS011;52707;52.086;5.418;2023-07-20T05:07:41;4.93;;;3.50;;
65936;SDS011;52707;52.086;5.418;2023-07-20T05:10:08;4.68;;;3.80;;
65936;SDS011;52707;52.086;5.418;2023-07-20T05:12:34;3.70;;;3.40;;
65936;SDS011;52707;52.086;5.418;2023-07-20T05:15:01;4.32;;;3.47;;
65936;SDS011;52707;52.086;5.418;2023-07-20T05:17:27;7.22;;;3.90;;
65936;SDS011;52707;52.086;5.418;2023-07-20T05:19:54;4.53;;;4.13;;
65936;SDS011;52707;52.086;5.418;2023-07-20T05:22:20;5.50;;;3.72;;
65936;SDS011;52707;52.086;5.418;2023-07-20T05:24:47;5.72;;;3.90;;
65936;SDS011;52707;52.086;5.418;2023-07-20T05:27:13;4.05;;;3.70;;
65936;SDS011;52707;52.086;5.418;2023-07-20T05:29:43;6.40;;;3.60;;
65936;SDS011;52707;52.086;5.418;2023-07-20T05:34:37;4.80;;;3.70;;
65936;SDS011;52707;52.086;5.418;2023-07-20T05:37:05;7.28;;;3.55;;
65936;SDS011;52707;52.086;5.418;2023-07-20T05:39:32;7.65;;;3.40;;
65936;SDS011;52707;52.086;5.418;2023-07-20T05:41:59;5.10;;;3.72;;
65936;SDS011;52707;52.086;5.418;2023-07-20T05:44:25;4.40;;;3.58;;
65936;SDS011;52707;52.086;5.418;2023-07-20T05:46:51;3.88;;;3.50;;
65936;SDS011;52707;52.086;5.418;2023-07-20T05:49:23;3.33;;;2.88;;
65936;SDS011;52707;52.086;5.418;2023-07-20T05:51:50;7.22;;;3.33;;
65936;SDS011;52707;52.086;5.418;2023-07-20T05:54:16;5.90;;;3.40;;
65936;SDS011;52707;52.086;5.418;2023-07-20T05:56:42;4.00;;;2.78;;
65936;SDS011;52707;52.086;5.418;2023-07-20T05:59:09;3.65;;;3.28;;
65936;SDS011;52707;52.086;5.418;2023-07-20T06:01:35;3.65;;;2.70;;
65936;SDS011;52707;52.086;5.418;2023-07-20T06:04:03;3.63;;;2.70;;
65936;SDS011;52707;52.086;5.418;2023-07-20T06:06:30;4.53;;;2.75;;
65936;SDS011;52707;52.086;5.418;2023-07-20T06:08:56;3.92;;;3.10;;
65936;SDS011;52707;52.086;5.418;2023-07-20T06:11:23;9.15;;;3.00;;
65936;SDS011;52707;52.086;5.418;2023-07-20T06:13:49;3.17;;;2.80;;
65936;SDS011;52707;52.086;5.418;2023-07-20T06:16:16;4.07;;;2.70;;
65936;SDS011;52707;52.086;5.418;2023-07-20T06:18:42;4.68;;;2.63;;
65936;SDS011;52707;52.086;5.418;2023-07-20T06:21:09;3.47;;;2.70;;
65936;SDS011;52707;52.086;5.418;2023-07-20T06:23:35;3.97;;;2.45;;
65936;SDS011;52707;52.086;5.418;2023-07-20T06:26:02;6.40;;;2.92;;
65936;SDS011;52707;52.086;5.418;2023-07-20T06:28:28;4.50;;;3.00;;
65936;SDS011;52707;52.086;5.418;2023-07-20T06:31:01;10.93;;;2.63;;
65936;SDS011;52707;52.086;5.418;2023-07-20T06:33:27;2.70;;;2.17;;
65936;SDS011;52707;52.086;5.418;2023-07-20T06:35:54;4.05;;;2.38;;
65936;SDS011;52707;52.086;5.418;2023-07-20T06:38:20;4.47;;;1.67;;
65936;SDS011;52707;52.086;5.418;2023-07-20T06:40:51;3.78;;;1.70;;
65936;SDS011;52707;52.086;5.418;2023-07-20T06:43:20;2.20;;;1.35;;
65936;SDS011;52707;52.086;5.418;2023-07-20T06:45:53;1.80;;;1.38;;
65936;SDS011;52707;52.086;5.418;2023-07-20T06:48:20;1.30;;;1.20;;
65936;SDS011;52707;52.086;5.418;2023-07-20T06:50:46;1.48;;;0.80;;
65936;SDS011;52707;52.086;5.418;2023-07-20T06:53:12;2.22;;;1.63;;
65936;SDS011;52707;52.086;5.418;2023-07-20T06:55:39;2.35;;;1.40;;
65936;SDS011;52707;52.086;5.418;2023-07-20T06:58:08;1.48;;;1.38;;
65936;SDS011;52707;52.086;5.418;2023-07-20T07:00:34;3.58;;;1.45;;
65936;SDS011;52707;52.086;5.418;2023-07-20T07:03:01;2.55;;;1.38;;
65936;SDS011;52707;52.086;5.418;2023-07-20T07:05:27;6.07;;;1.80;;
65936;SDS011;52707;52.086;5.418;2023-07-20T07:08:02;5.18;;;1.40;;
65936;SDS011;52707;52.086;5.418;2023-07-20T07:10:28;2.15;;;1.17;;
65936;SDS011;52707;52.086;5.418;2023-07-20T07:12:55;2.65;;;1.17;;
65936;SDS011;52707;52.086;5.418;2023-07-20T07:15:21;6.47;;;1.10;;
65936;SDS011;52707;52.086;5.418;2023-07-20T07:17:47;3.80;;;0.90;;
65936;SDS011;52707;52.086;5.418;2023-07-20T07:20:14;2.35;;;0.80;;
65936;SDS011;52707;52.086;5.418;2023-07-20T07:22:43;3.10;;;1.00;;
65936;SDS011;52707;52.086;5.418;2023-07-20T07:25:12;0.63;;;0.63;;
65936;SDS011;52707;52.086;5.418;2023-07-20T07:27:38;4.25;;;1.48;;
65936;SDS011;52707;52.086;5.418;2023-07-20T07:30:05;4.38;;;1.00;;
65936;SDS011;52707;52.086;5.418;2023-07-20T07:32:32;3.20;;;1.20;;
65936;SDS011;52707;52.086;5.418;2023-07-20T07:34:58;0.77;;;0.70;;
65936;SDS011;52707;52.086;5.418;2023-07-20T07:37:26;0.73;;;0.73;;
65936;SDS011;52707;52.086;5.418;2023-07-20T07:39:52;1.50;;;0.90;;
65936;SDS011;52707;52.086;5.418;2023-07-20T07:42:18;3.60;;;0.98;;
65936;SDS011;52707;52.086;5.418;2023-07-20T07:44:46;0.80;;;0.80;;
65936;SDS011;52707;52.086;5.418;2023-07-20T07:47:13;3.45;;;1.00;;
65936;SDS011;52707;52.086;5.418;2023-07-20T07:49:39;2.40;;;1.00;;
65936;SDS011;52707;52.086;5.418;2023-07-20T07:52:05;2.42;;;0.85;;
65936;SDS011;52707;52.086;5.418;2023-07-20T07:54:32;2.03;;;0.80;;
65936;SDS011;52707;52.086;5.418;2023-07-20T07:56:58;1.80;;;0.90;;
65936;SDS011;52707;52.086;5.418;2023-07-20T07:59:25;1.67;;;0.77;;
65936;SDS011;52707;52.086;5.418;2023-07-20T08:01:51;5.78;;;1.10;;
65936;SDS011;52707;52.086;5.418;2023-07-20T08:04:18;1.48;;;0.60;;
65936;SDS011;52707;52.086;5.418;2023-07-20T08:06:45;1.85;;;0.90;;
65936;SDS011;52707;52.086;5.418;2023-07-20T08:09:11;1.42;;;0.90;;
65936;SDS011;52707;52.086;5.418;2023-07-20T08:11:39;2.92;;;0.77;;
65936;SDS011;52707;52.086;5.418;2023-07-20T08:14:05;0.75;;;0.43;;
65936;SDS011;52707;52.086;5.418;2023-07-20T08:16:32;1.30;;;0.70;;
65936;SDS011;52707;52.086;5.418;2023-07-20T08:18:59;0.68;;;0.68;;
65936;SDS011;52707;52.086;5.418;2023-07-20T08:21:25;1.73;;;0.80;;
65936;SDS011;52707;52.086;5.418;2023-07-20T08:23:52;3.55;;;0.80;;
65936;SDS011;52707;52.086;5.418;2023-07-20T08:26:18;0.63;;;0.60;;
65936;SDS011;52707;52.086;5.418;2023-07-20T08:28:49;2.15;;;0.90;;
65936;SDS011;52707;52.086;5.418;2023-07-20T08:31:15;0.85;;;0.70;;
65936;SDS011;52707;52.086;5.418;2023-07-20T08:33:42;0.63;;;0.60;;
65936;SDS011;52707;52.086;5.418;2023-07-20T08:36:08;1.42;;;0.70;;
65936;SDS011;52707;52.086;5.418;2023-07-20T08:38:37;3.38;;;1.02;;
65936;SDS011;52707;52.086;5.418;2023-07-20T08:41:03;2.95;;;1.02;;
65936;SDS011;52707;52.086;5.418;2023-07-20T08:43:30;2.75;;;0.90;;
65936;SDS011;52707;52.086;5.418;2023-07-20T08:45:57;5.25;;;0.70;;
65936;SDS011;52707;52.086;5.418;2023-07-20T08:48:24;1.27;;;0.77;;
65936;SDS011;52707;52.086;5.418;2023-07-20T08:50:51;1.00;;;0.50;;
65936;SDS011;52707;52.086;5.418;2023-07-20T08:53:17;0.63;;;0.60;;
65936;SDS011;52707;52.086;5.418;2023-07-20T08:55:44;0.43;;;0.43;;
65936;SDS011;52707;52.086;5.418;2023-07-20T08:58:12;1.92;;;0.30;;
65936;SDS011;52707;52.086;5.418;2023-07-20T09:00:38;2.05;;;0.55;;
65936;SDS011;52707;52.086;5.418;2023-07-20T09:03:06;1.42;;;0.65;;
65936;SDS011;52707;52.086;5.418;2023-07-20T09:05:33;3.50;;;0.57;;
65936;SDS011;52707;52.086;5.418;2023-07-20T09:08:01;1.55;;;0.60;;
65936;SDS011;52707;52.086;5.418;2023-07-20T09:10:31;2.85;;;0.50;;
65936;SDS011;52707;52.086;5.418;2023-07-20T09:12:57;0.73;;;0.50;;
65936;SDS011;52707;52.086;5.418;2023-07-20T09:15:24;3.03;;;0.60;;
65936;SDS011;52707;52.086;5.418;2023-07-20T09:17:50;1.90;;;0.98;;
65936;SDS011;52707;52.086;5.418;2023-07-20T09:20:18;3.30;;;0.63;;
65936;SDS011;52707;52.086;5.418;2023-07-20T09:22:48;0.50;;;0.50;;
65936;SDS011;52707;52.086;5.418;2023-07-20T09:25:17;2.13;;;0.82;;
65936;SDS011;52707;52.086;5.418;2023-07-20T09:27:44;1.95;;;0.40;;
65936;SDS011;52707;52.086;5.418;2023-07-20T09:30:11;1.90;;;0.57;;
65936;SDS011;52707;52.086;5.418;2023-07-20T09:32:44;0.47;;;0.47;;
65936;SDS011;52707;52.086;5.418;2023-07-20T09:35:21;1.17;;;0.50;;
65936;SDS011;52707;52.086;5.418;2023-07-20T09:37:51;0.60;;;0.60;;
65936;SDS011;52707;52.086;5.418;2023-07-20T09:40:40;0.60;;;0.40;;
65936;SDS011;52707;52.086;5.418;2023-07-20T09:43:10;0.40;;;0.40;;
65936;SDS011;52707;52.086;5.418;2023-07-20T09:45:40;2.60;;;0.30;;
65936;SDS011;52707;52.086;5.418;2023-07-20T09:48:12;2.92;;;0.52;;
65936;SDS011;52707;52.086;5.418;2023-07-20T09:50:50;0.38;;;0.38;;
65936;SDS011;52707;52.086;5.418;2023-07-20T09:53:18;0.93;;;0.60;;
65936;SDS011;52707;52.086;5.418;2023-07-20T09:55:48;0.82;;;0.50;;
65936;SDS011;52707;52.086;5.418;2023-07-20T09:58:14;0.80;;;0.70;;
65936;SDS011;52707;52.086;5.418;2023-07-20T10:00:42;0.90;;;0.60;;
65936;SDS011;52707;52.086;5.418;2023-07-20T10:03:18;3.53;;;0.52;;
65936;SDS011;52707;52.086;5.418;2023-07-20T10:05:47;1.08;;;0.55;;
65936;SDS011;52707;52.086;5.418;2023-07-20T10:08:14;0.95;;;0.60;;
65936;SDS011;52707;52.086;5.418;2023-07-20T10:10:45;1.17;;;0.47;;
65936;SDS011;52707;52.086;5.418;2023-07-20T10:13:36;2.08;;;0.65;;
65936;SDS011;52707;52.086;5.418;2023-07-20T10:16:07;21.00;;;1.48;;
65936;SDS011;52707;52.086;5.418;2023-07-20T10:18:53;0.65;;;0.45;;
65936;SDS011;52707;52.086;5.418;2023-07-20T10:21:21;2.88;;;0.50;;
65936;SDS011;52707;52.086;5.418;2023-07-20T10:23:54;1.17;;;0.45;;
65936;SDS011;52707;52.086;5.418;2023-07-20T10:26:24;0.60;;;0.60;;
65936;SDS011;52707;52.086;5.418;2023-07-20T10:28:51;0.30;;;0.30;;
65936;SDS011;52707;52.086;5.418;2023-07-20T10:31:17;0.40;;;0.40;;
65936;SDS011;52707;52.086;5.418;2023-07-20T10:33:44;0.55;;;0.50;;
65936;SDS011;52707;52.086;5.418;2023-07-20T10:36:11;0.57;;;0.30;;
65936;SDS011;52707;52.086;5.418;2023-07-20T10:41:18;0.45;;;0.40;;
65936;SDS011;52707;52.086;5.418;2023-07-20T10:43:46;0.30;;;0.30;;
65936;SDS011;52707;52.086;5.418;2023-07-20T10:46:12;1.48;;;0.50;;
65936;SDS011;52707;52.086;5.418;2023-07-20T10:51:24;0.82;;;0.20;;
65936;SDS011;52707;52.086;5.418;2023-07-20T10:53:53;1.33;;;0.40;;
65936;SDS011;52707;52.086;5.418;2023-07-20T10:56:23;4.05;;;0.55;;
65936;SDS011;52707;52.086;5.418;2023-07-20T10:58:55;0.38;;;0.38;;
65936;SDS011;52707;52.086;5.418;2023-07-20T11:01:27;0.60;;;0.60;;
65936;SDS011;52707;52.086;5.418;2023-07-20T11:03:56;5.47;;;0.63;;
65936;SDS011;52707;52.086;5.418;2023-07-20T11:08:56;1.70;;;0.50;;
65936;SDS011;52707;52.086;5.418;2023-07-20T11:11:27;2.00;;;0.60;;
65936;SDS011;52707;52.086;5.418;2023-07-20T11:14:00;1.33;;;0.60;;
65936;SDS011;52707;52.086;5.418;2023-07-20T11:16:34;2.00;;;0.55;;
65936;SDS011;52707;52.086;5.418;2023-07-20T11:19:01;0.70;;;0.70;;
65936;SDS011;52707;52.086;5.418;2023-07-20T11:21:29;0.30;;;0.30;;
65936;SDS011;52707;52.086;5.418;2023-07-20T11:23:56;0.40;;;0.40;;
65936;SDS011;52707;52.086;5.418;2023-07-20T11:26:22;0.65;;;0.30;;
65936;SDS011;52707;52.086;5.418;2023-07-20T11:28:49;5.10;;;0.30;;
65936;SDS011;52707;52.086;5.418;2023-07-20T11:31:15;1.23;;;0.60;;
65936;SDS011;52707;52.086;5.418;2023-07-20T11:33:42;0.30;;;0.30;;
65936;SDS011;52707;52.086;5.418;2023-07-20T11:36:09;0.98;;;0.40;;
65936;SDS011;52707;52.086;5.418;2023-07-20T11:38:40;1.60;;;0.30;;
65936;SDS011;52707;52.086;5.418;2023-07-20T11:41:08;1.27;;;0.50;;
65936;SDS011;52707;52.086;5.418;2023-07-20T11:43:34;0.65;;;0.50;;
65936;SDS011;52707;52.086;5.418;2023-07-20T11:46:04;9.70;;;1.10;;
65936;SDS011;52707;52.086;5.418;2023-07-20T11:48:31;4.10;;;0.60;;
65936;SDS011;52707;52.086;5.418;2023-07-20T11:50:57;5.15;;;1.73;;
65936;SDS011;52707;52.086;5.418;2023-07-20T11:53:24;3.83;;;0.90;;
65936;SDS011;52707;52.086;5.418;2023-07-20T11:55:51;12.88;;;1.20;;
65936;SDS011;52707;52.086;5.418;2023-07-20T11:58:17;3.00;;;0.98;;
65936;SDS011;52707;52.086;5.418;2023-07-20T12:00:44;2.38;;;0.60;;
65936;SDS011;52707;52.086;5.418;2023-07-20T12:03:11;2.47;;;0.52;;
65936;SDS011;52707;52.086;5.418;2023-07-20T12:05:38;6.13;;;1.98;;
65936;SDS011;52707;52.086;5.418;2023-07-20T12:08:25;3.83;;;1.25;;
65936;SDS011;52707;52.086;5.418;2023-07-20T12:10:51;2.88;;;0.57;;
65936;SDS011;52707;52.086;5.418;2023-07-20T12:13:18;5.28;;;1.05;;
65936;SDS011;52707;52.086;5.418;2023-07-20T12:15:44;5.32;;;0.77;;
65936;SDS011;52707;52.086;5.418;2023-07-20T12:18:10;2.60;;;0.82;;
65936;SDS011;52707;52.086;5.418;2023-07-20T12:20:37;6.13;;;1.10;;
65936;SDS011;52707;52.086;5.418;2023-07-20T12:23:13;5.05;;;2.10;;
65936;SDS011;52707;52.086;5.418;2023-07-20T12:25:41;1.05;;;0.85;;
65936;SDS011;52707;52.086;5.418;2023-07-20T12:28:09;2.47;;;0.50;;
65936;SDS011;52707;52.086;5.418;2023-07-20T12:30:36;3.58;;;0.63;;
65936;SDS011;52707;52.086;5.418;2023-07-20T12:33:03;7.65;;;0.85;;
65936;SDS011;52707;52.086;5.418;2023-07-20T12:35:31;2.50;;;0.90;;
65936;SDS011;52707;52.086;5.418;2023-07-20T12:37:57;1.33;;;0.68;;
65936;SDS011;52707;52.086;5.418;2023-07-20T12:40:24;3.30;;;0.57;;
65936;SDS011;52707;52.086;5.418;2023-07-20T12:42:50;3.15;;;0.50;;
65936;SDS011;52707;52.086;5.418;2023-07-20T12:45:17;0.73;;;0.50;;
65936;SDS011;52707;52.086;5.418;2023-07-20T12:47:43;0.88;;;0.60;;
65936;SDS011;52707;52.086;5.418;2023-07-20T12:50:10;4.20;;;0.85;;
65936;SDS011;52707;52.086;5.418;2023-07-20T12:52:37;2.05;;;0.70;;
65936;SDS011;52707;52.086;5.418;2023-07-20T12:55:07;0.85;;;0.63;;
65936;SDS011;52707;52.086;5.418;2023-07-20T12:57:34;0.70;;;0.70;;
65936;SDS011;52707;52.086;5.418;2023-07-20T13:00:04;2.22;;;0.70;;
65936;SDS011;52707;52.086;5.418;2023-07-20T13:02:32;1.27;;;0.60;;
65936;SDS011;52707;52.086;5.418;2023-07-20T13:04:59;1.73;;;0.63;;
65936;SDS011;52707;52.086;5.418;2023-07-20T13:10:01;0.73;;;0.70;;
65936;SDS011;52707;52.086;5.418;2023-07-20T13:12:28;2.85;;;0.85;;
65936;SDS011;52707;52.086;5.418;2023-07-20T13:14:55;3.20;;;1.13;;
65936;SDS011;52707;52.086;5.418;2023-07-20T13:17:22;2.35;;;0.70;;
65936;SDS011;52707;52.086;5.418;2023-07-20T13:19:49;4.82;;;1.05;;
65936;SDS011;52707;52.086;5.418;2023-07-20T13:22:15;1.70;;;0.60;;
65936;SDS011;52707;52.086;5.418;2023-07-20T13:24:43;1.08;;;0.65;;
65936;SDS011;52707;52.086;5.418;2023-07-20T13:27:10;0.50;;;0.50;;
65936;SDS011;52707;52.086;5.418;2023-07-20T13:29:37;0.93;;;0.40;;
65936;SDS011;52707;52.086;5.418;2023-07-20T13:32:03;2.95;;;0.60;;
65936;SDS011;52707;52.086;5.418;2023-07-20T13:34:33;1.53;;;0.67;;
65936;SDS011;52707;52.086;5.418;2023-07-20T13:36:59;3.45;;;0.70;;
65936;SDS011;52707;52.086;5.418;2023-07-20T13:39:26;1.27;;;0.68;;
65936;SDS011;52707;52.086;5.418;2023-07-20T13:41:54;0.63;;;0.63;;
65936;SDS011;52707;52.086;5.418;2023-07-20T13:44:20;2.38;;;1.13;;
65936;SDS011;52707;52.086;5.418;2023-07-20T13:46:48;0.70;;;0.70;;
65936;SDS011;52707;52.086;5.418;2023-07-20T13:49:15;4.35;;;0.98;;
65936;SDS011;52707;52.086;5.418;2023-07-20T13:51:49;1.77;;;0.77;;
65936;SDS011;52707;52.086;5.418;2023-07-20T13:54:35;2.95;;;0.90;;
65936;SDS011;52707;52.086;5.418;2023-07-20T13:57:01;1.80;;;0.60;;
65936;SDS011;52707;52.086;5.418;2023-07-20T13:59:28;0.55;;;0.52;;
65936;SDS011;52707;52.086;5.418;2023-07-20T14:01:55;1.33;;;0.90;;
65936;SDS011;52707;52.086;5.418;2023-07-20T14:04:24;1.17;;;0.70;;
65936;SDS011;52707;52.086;5.418;2023-07-20T14:06:51;2.08;;;0.77;;
65936;SDS011;52707;52.086;5.418;2023-07-20T14:09:18;3.60;;;1.00;;
65936;SDS011;52707;52.086;5.418;2023-07-20T14:11:44;0.68;;;0.68;;
65936;SDS011;52707;52.086;5.418;2023-07-20T14:14:13;4.17;;;1.00;;
65936;SDS011;52707;52.086;5.418;2023-07-20T14:16:40;6.60;;;0.80;;
65936;SDS011;52707;52.086;5.418;2023-07-20T14:19:06;2.53;;;1.08;;
65936;SDS011;52707;52.086;5.418;2023-07-20T14:21:33;0.70;;;0.70;;
65936;SDS011;52707;52.086;5.418;2023-07-20T14:23:59;3.67;;;0.77;;
65936;SDS011;52707;52.086;5.418;2023-07-20T14:26:27;1.67;;;0.70;;
65936;SDS011;52707;52.086;5.418;2023-07-20T14:28:54;1.50;;;0.63;;
65936;SDS011;52707;52.086;5.418;2023-07-20T14:31:20;1.17;;;0.60;;
65936;SDS011;52707;52.086;5.418;2023-07-20T14:33:46;11.00;;;1.50;;
65936;SDS011;52707;52.086;5.418;2023-07-20T14:36:13;2.40;;;0.75;;
65936;SDS011;52707;52.086;5.418;2023-07-20T14:38:39;11.35;;;1.35;;
65936;SDS011;52707;52.086;5.418;2023-07-20T14:41:07;2.30;;;0.50;;
65936;SDS011;52707;52.086;5.418;2023-07-20T14:43:33;0.95;;;0.65;;
65936;SDS011;52707;52.086;5.418;2023-07-20T14:45:59;2.97;;;0.90;;
65936;SDS011;52707;52.086;5.418;2023-07-20T14:48:26;6.47;;;0.80;;
65936;SDS011;52707;52.086;5.418;2023-07-20T14:50:52;2.78;;;0.70;;
65936;SDS011;52707;52.086;5.418;2023-07-20T14:53:30;0.75;;;0.75;;
65936;SDS011;52707;52.086;5.418;2023-07-20T14:56:00;5.40;;;0.80;;
65936;SDS011;52707;52.086;5.418;2023-07-20T14:58:27;1.05;;;0.68;;
65936;SDS011;52707;52.086;5.418;2023-07-20T15:00:53;1.67;;;0.73;;
65936;SDS011;52707;52.086;5.418;2023-07-20T15:03:20;1.17;;;0.70;;
65936;SDS011;52707;52.086;5.418;2023-07-20T15:05:46;1.00;;;0.60;;
65936;SDS011;52707;52.086;5.418;2023-07-20T15:08:12;2.85;;;1.00;;
65936;SDS011;52707;52.086;5.418;2023-07-20T15:10:39;2.10;;;0.70;;
65936;SDS011;52707;52.086;5.418;2023-07-20T15:13:05;0.80;;;0.70;;
65936;SDS011;52707;52.086;5.418;2023-07-20T15:15:31;3.28;;;0.80;;
65936;SDS011;52707;52.086;5.418;2023-07-20T15:17:58;6.35;;;0.90;;
65936;SDS011;52707;52.086;5.418;2023-07-20T15:20:24;1.63;;;1.00;;